sensor_id;sensor_type;location;lat;lon;timestamp;temperature;humidity
36212;DHT22;22247;48.586;13.492;2023-05-15T00:01:16;9.70;99.90
36212;DHT22;22247;48.586;13.492;2023-05-15T00:03:41;9.70;99.90
36212;DHT22;22247;48.586;13.492;2023-05-15T00:06:09;9.70;99.90
36212;DHT22;22247;48.586;13.492;2023-05-15T00:08:35;9.70;99.90
36212;DHT22;22247;48.586;13.492;2023-05-15T00:11:00;9.60;99.90
36212;DHT22;22247;48.586;13.492;2023-05-15T00:13:26;9.50;99.90
36212;DHT22;22247;48.586;13.492;2023-05-15T00:15:54;9.60;99.90
36212;DHT22;22247;48.586;13.492;2023-05-15T00:18:19;9.60;99.90
36212;DHT22;22247;48.586;13.492;2023-05-15T00:20:47;9.60;99.90
36212;DHT22;22247;48.586;13.492;2023-05-15T00:23:13;9.60;99.90
36212;DHT22;22247;48.586;13.492;2023-05-15T00:25:39;9.70;99.90
36212;DHT22;22247;48.586;13.492;2023-05-15T00:28:07;9.60;99.90
36212;DHT22;22247;48.586;13.492;2023-05-15T00:30:32;9.60;99.90
36212;DHT22;22247;48.586;13.492;2023-05-15T00:32:58;9.60;99.90
36212;DHT22;22247;48.586;13.492;2023-05-15T00:35:24;9.60;99.90
36212;DHT22;22247;48.586;13.492;2023-05-15T00:37:49;9.50;99.90
36212;DHT22;22247;48.586;13.492;2023-05-15T00:40:20;9.50;99.90
36212;DHT22;22247;48.586;13.492;2023-05-15T00:42:47;9.50;99.90
36212;DHT22;22247;48.586;13.492;2023-05-15T00:45:13;9.50;99.90
36212;DHT22;22247;48.586;13.492;2023-05-15T00:47:40;9.60;99.90
36212;DHT22;22247;48.586;13.492;2023-05-15T00:50:11;9.50;99.90
36212;DHT22;22247;48.586;13.492;2023-05-15T00:52:37;9.50;99.90
36212;DHT22;22247;48.586;13.492;2023-05-15T00:55:03;9.50;99.90
36212;DHT22;22247;48.586;13.492;2023-05-15T00:57:30;9.50;99.90
36212;DHT22;22247;48.586;13.492;2023-05-15T00:59:59;9.50;99.90
36212;DHT22;22247;48.586;13.492;2023-05-15T01:02:29;9.50;99.90
36212;DHT22;22247;48.586;13.492;2023-05-15T01:04:56;9.50;99.90
36212;DHT22;22247;48.586;13.492;2023-05-15T01:07:22;9.60;99.90
36212;DHT22;22247;48.586;13.492;2023-05-15T01:09:48;9.60;99.90
36212;DHT22;22247;48.586;13.492;2023-05-15T01:12:14;9.50;99.90
36212;DHT22;22247;48.586;13.492;2023-05-15T01:14:43;9.60;99.90
36212;DHT22;22247;48.586;13.492;2023-05-15T01:17:09;9.60;99.90
36212;DHT22;22247;48.586;13.492;2023-05-15T01:19:35;9.60;99.90
36212;DHT22;22247;48.586;13.492;2023-05-15T01:27:38;9.70;99.90
36212;DHT22;22247;48.586;13.492;2023-05-15T01:33:05;9.70;99.90
36212;DHT22;22247;48.586;13.492;2023-05-15T01:35:42;9.70;99.90
36212;DHT22;22247;48.586;13.492;2023-05-15T01:38:15;9.70;99.90
36212;DHT22;22247;48.586;13.492;2023-05-15T01:40:46;9.70;99.90
36212;DHT22;22247;48.586;13.492;2023-05-15T01:43:21;9.70;99.90
36212;DHT22;22247;48.586;13.492;2023-05-15T01:45:47;9.70;99.90
36212;DHT22;22247;48.586;13.492;2023-05-15T01:48:14;9.70;99.90
36212;DHT22;22247;48.586;13.492;2023-05-15T01:50:42;9.70;99.90
36212;DHT22;22247;48.586;13.492;2023-05-15T01:53:13;9.70;99.90
36212;DHT22;22247;48.586;13.492;2023-05-15T01:55:40;9.70;99.90
36212;DHT22;22247;48.586;13.492;2023-05-15T01:58:09;9.80;99.90
36212;DHT22;22247;48.586;13.492;2023-05-15T02:00:37;9.70;99.90
36212;DHT22;22247;48.586;13.492;2023-05-15T02:03:04;9.60;99.90
36212;DHT22;22247;48.586;13.492;2023-05-15T02:05:32;9.50;99.90
36212;DHT22;22247;48.586;13.492;2023-05-15T02:07:58;9.50;99.90
36212;DHT22;22247;48.586;13.492;2023-05-15T02:10:25;9.50;99.90
36212;DHT22;22247;48.586;13.492;2023-05-15T02:12:51;9.50;99.90
36212;DHT22;22247;48.586;13.492;2023-05-15T02:15:18;9.40;99.90
36212;DHT22;22247;48.586;13.492;2023-05-15T02:17:45;9.40;99.90
36212;DHT22;22247;48.586;13.492;2023-05-15T02:20:11;9.40;99.90
36212;DHT22;22247;48.586;13.492;2023-05-15T02:22:36;9.40;99.90
36212;DHT22;22247;48.586;13.492;2023-05-15T02:25:02;9.40;99.90
36212;DHT22;22247;48.586;13.492;2023-05-15T02:27:45;9.30;99.90
36212;DHT22;22247;48.586;13.492;2023-05-15T02:35:42;9.30;99.90
36212;DHT22;22247;48.586;13.492;2023-05-15T02:38:15;9.30;99.90
36212;DHT22;22247;48.586;13.492;2023-05-15T02:40:44;9.30;99.90
36212;DHT22;22247;48.586;13.492;2023-05-15T02:43:14;9.50;99.90
36212;DHT22;22247;48.586;13.492;2023-05-15T02:45:42;9.30;99.90
36212;DHT22;22247;48.586;13.492;2023-05-15T02:48:09;9.30;99.90
36212;DHT22;22247;48.586;13.492;2023-05-15T02:50:35;9.30;99.90
36212;DHT22;22247;48.586;13.492;2023-05-15T02:53:06;9.30;99.90
36212;DHT22;22247;48.586;13.492;2023-05-15T02:55:34;9.40;99.90
36212;DHT22;22247;48.586;13.492;2023-05-15T02:58:01;9.50;99.90
36212;DHT22;22247;48.586;13.492;2023-05-15T03:00:27;9.50;99.90
36212;DHT22;22247;48.586;13.492;2023-05-15T03:02:55;9.40;99.90
36212;DHT22;22247;48.586;13.492;2023-05-15T03:05:21;9.50;99.90
36212;DHT22;22247;48.586;13.492;2023-05-15T03:07:47;9.50;99.90
36212;DHT22;22247;48.586;13.492;2023-05-15T03:10:12;9.50;99.90
36212;DHT22;22247;48.586;13.492;2023-05-15T03:12:38;9.50;99.90
36212;DHT22;22247;48.586;13.492;2023-05-15T03:15:05;9.50;99.90
36212;DHT22;22247;48.586;13.492;2023-05-15T03:17:31;9.40;99.90
36212;DHT22;22247;48.586;13.492;2023-05-15T03:19:56;9.40;99.90
36212;DHT22;22247;48.586;13.492;2023-05-15T03:22:22;9.40;99.90
36212;DHT22;22247;48.586;13.492;2023-05-15T03:24:48;9.40;99.90
36212;DHT22;22247;48.586;13.492;2023-05-15T03:27:16;9.40;99.90
36212;DHT22;22247;48.586;13.492;2023-05-15T03:29:42;9.50;99.90
36212;DHT22;22247;48.586;13.492;2023-05-15T03:32:08;9.50;99.90
36212;DHT22;22247;48.586;13.492;2023-05-15T03:34:35;9.50;99.90
36212;DHT22;22247;48.586;13.492;2023-05-15T03:37:01;9.60;99.90
36212;DHT22;22247;48.586;13.492;2023-05-15T03:39:27;9.60;99.90
36212;DHT22;22247;48.586;13.492;2023-05-15T03:41:52;9.50;99.90
36212;DHT22;22247;48.586;13.492;2023-05-15T03:44:20;9.50;99.90
36212;DHT22;22247;48.586;13.492;2023-05-15T03:46:46;9.60;99.90
36212;DHT22;22247;48.586;13.492;2023-05-15T03:49:12;9.60;99.90
36212;DHT22;22247;48.586;13.492;2023-05-15T03:51:39;9.60;99.90
36212;DHT22;22247;48.586;13.492;2023-05-15T03:54:05;9.60;99.90
36212;DHT22;22247;48.586;13.492;2023-05-15T03:56:33;9.60;99.90
36212;DHT22;22247;48.586;13.492;2023-05-15T03:58:59;9.60;99.90
36212;DHT22;22247;48.586;13.492;2023-05-15T04:01:25;9.60;99.90
36212;DHT22;22247;48.586;13.492;2023-05-15T04:03:50;9.60;99.90
36212;DHT22;22247;48.586;13.492;2023-05-15T04:06:18;9.60;99.90
36212;DHT22;22247;48.586;13.492;2023-05-15T04:08:44;9.60;99.90
36212;DHT22;22247;48.586;13.492;2023-05-15T04:11:09;9.70;99.90
36212;DHT22;22247;48.586;13.492;2023-05-15T04:13:36;9.60;99.90
36212;DHT22;22247;48.586;13.492;2023-05-15T04:16:02;9.60;99.90
36212;DHT22;22247;48.586;13.492;2023-05-15T04:18:28;9.70;99.90
36212;DHT22;22247;48.586;13.492;2023-05-15T04:20:54;9.70;99.90
36212;DHT22;22247;48.586;13.492;2023-05-15T04:23:19;9.70;99.90
36212;DHT22;22247;48.586;13.492;2023-05-15T04:25:45;10.00;99.90
36212;DHT22;22247;48.586;13.492;2023-05-15T04:28:15;9.70;99.90
36212;DHT22;22247;48.586;13.492;2023-05-15T04:30:44;9.80;99.90
36212;DHT22;22247;48.586;13.492;2023-05-15T04:33:10;9.80;99.90
36212;DHT22;22247;48.586;13.492;2023-05-15T04:35:37;9.80;99.90
36212;DHT22;22247;48.586;13.492;2023-05-15T04:38:06;9.80;99.90
36212;DHT22;22247;48.586;13.492;2023-05-15T04:40:32;9.90;99.90
36212;DHT22;22247;48.586;13.492;2023-05-15T04:42:58;9.90;99.90
36212;DHT22;22247;48.586;13.492;2023-05-15T04:45:23;10.00;99.90
36212;DHT22;22247;48.586;13.492;2023-05-15T04:47:49;9.90;99.90
36212;DHT22;22247;48.586;13.492;2023-05-15T04:50:17;9.60;99.90
36212;DHT22;22247;48.586;13.492;2023-05-15T04:52:46;10.00;99.90
36212;DHT22;22247;48.586;13.492;2023-05-15T04:55:14;10.00;99.90
36212;DHT22;22247;48.586;13.492;2023-05-15T04:57:40;10.00;99.90
36212;DHT22;22247;48.586;13.492;2023-05-15T05:00:06;10.10;99.90
36212;DHT22;22247;48.586;13.492;2023-05-15T05:02:36;10.10;99.90
36212;DHT22;22247;48.586;13.492;2023-05-15T05:05:02;10.20;99.90
36212;DHT22;22247;48.586;13.492;2023-05-15T05:07:28;10.10;99.90
36212;DHT22;22247;48.586;13.492;2023-05-15T05:09:54;10.10;99.90
36212;DHT22;22247;48.586;13.492;2023-05-15T05:12:19;10.10;99.90
36212;DHT22;22247;48.586;13.492;2023-05-15T05:14:45;10.10;99.90
36212;DHT22;22247;48.586;13.492;2023-05-15T05:17:13;10.10;99.90
36212;DHT22;22247;48.586;13.492;2023-05-15T05:19:41;10.10;99.90
36212;DHT22;22247;48.586;13.492;2023-05-15T05:22:07;10.10;99.90
36212;DHT22;22247;48.586;13.492;2023-05-15T05:24:33;10.10;99.90
36212;DHT22;22247;48.586;13.492;2023-05-15T05:27:05;10.20;99.90
36212;DHT22;22247;48.586;13.492;2023-05-15T05:29:31;10.10;99.90
36212;DHT22;22247;48.586;13.492;2023-05-15T05:31:57;10.20;99.90
36212;DHT22;22247;48.586;13.492;2023-05-15T05:34:22;10.20;99.90
36212;DHT22;22247;48.586;13.492;2023-05-15T05:36:48;10.40;99.90
36212;DHT22;22247;48.586;13.492;2023-05-15T05:39:15;10.50;99.90
36212;DHT22;22247;48.586;13.492;2023-05-15T05:41:45;10.30;99.90
36212;DHT22;22247;48.586;13.492;2023-05-15T05:44:11;10.00;99.90
36212;DHT22;22247;48.586;13.492;2023-05-15T05:46:39;10.30;99.90
36212;DHT22;22247;48.586;13.492;2023-05-15T05:49:04;10.50;99.90
36212;DHT22;22247;48.586;13.492;2023-05-15T05:51:30;10.30;99.90
36212;DHT22;22247;48.586;13.492;2023-05-15T05:53:56;10.70;99.90
36212;DHT22;22247;48.586;13.492;2023-05-15T05:56:24;10.40;99.90
36212;DHT22;22247;48.586;13.492;2023-05-15T05:58:50;10.40;99.90
36212;DHT22;22247;48.586;13.492;2023-05-15T06:03:42;10.50;99.90
36212;DHT22;22247;48.586;13.492;2023-05-15T06:06:10;10.60;99.90
36212;DHT22;22247;48.586;13.492;2023-05-15T06:08:36;10.60;99.90
36212;DHT22;22247;48.586;13.492;2023-05-15T06:11:02;10.70;99.90
36212;DHT22;22247;48.586;13.492;2023-05-15T06:13:28;10.70;99.90
36212;DHT22;22247;48.586;13.492;2023-05-15T06:15:53;10.80;99.90
36212;DHT22;22247;48.586;13.492;2023-05-15T06:18:19;10.70;99.90
36212;DHT22;22247;48.586;13.492;2023-05-15T06:20:50;10.70;99.90
36212;DHT22;22247;48.586;13.492;2023-05-15T06:23:16;10.80;99.90
36212;DHT22;22247;48.586;13.492;2023-05-15T06:25:44;10.80;99.90
36212;DHT22;22247;48.586;13.492;2023-05-15T06:28:09;11.10;99.90
36212;DHT22;22247;48.586;13.492;2023-05-15T14:27:11;16.50;99.90
36212;DHT22;22247;48.586;13.492;2023-05-15T14:29:38;16.40;99.90
36212;DHT22;22247;48.586;13.492;2023-05-15T14:32:04;16.40;99.90
36212;DHT22;22247;48.586;13.492;2023-05-15T14:34:30;16.40;99.90
36212;DHT22;22247;48.586;13.492;2023-05-15T14:36:58;16.10;99.90
36212;DHT22;22247;48.586;13.492;2023-05-15T14:41:49;16.40;99.90
36212;DHT22;22247;48.586;13.492;2023-05-15T14:44:15;16.30;99.90
36212;DHT22;22247;48.586;13.492;2023-05-15T14:46:41;16.40;99.90
36212;DHT22;22247;48.586;13.492;2023-05-15T14:49:07;16.30;99.90
36212;DHT22;22247;48.586;13.492;2023-05-15T14:51:32;16.40;99.90
36212;DHT22;22247;48.586;13.492;2023-05-15T14:54:00;16.20;99.90
36212;DHT22;22247;48.586;13.492;2023-05-15T14:58:52;15.80;99.90
36212;DHT22;22247;48.586;13.492;2023-05-15T15:01:18;15.70;99.90
36212;DHT22;22247;48.586;13.492;2023-05-15T15:03:44;15.60;99.90
36212;DHT22;22247;48.586;13.492;2023-05-15T15:06:09;15.50;99.90
36212;DHT22;22247;48.586;13.492;2023-05-15T15:08:37;15.40;99.90
36212;DHT22;22247;48.586;13.492;2023-05-15T15:11:03;15.40;99.90
36212;DHT22;22247;48.586;13.492;2023-05-15T15:13:32;15.30;99.90
36212;DHT22;22247;48.586;13.492;2023-05-15T15:15:57;15.20;99.90
36212;DHT22;22247;48.586;13.492;2023-05-15T15:18:25;15.00;99.90
36212;DHT22;22247;48.586;13.492;2023-05-15T15:20:51;14.90;99.90
36212;DHT22;22247;48.586;13.492;2023-05-15T15:23:17;14.80;99.90
36212;DHT22;22247;48.586;13.492;2023-05-15T15:25:43;14.60;99.90
36212;DHT22;22247;48.586;13.492;2023-05-15T15:28:11;14.30;99.90
36212;DHT22;22247;48.586;13.492;2023-05-15T15:30:39;14.10;99.90
36212;DHT22;22247;48.586;13.492;2023-05-15T15:35:30;13.80;99.90
36212;DHT22;22247;48.586;13.492;2023-05-15T15:37:59;13.80;99.90
36212;DHT22;22247;48.586;13.492;2023-05-15T15:40:24;13.60;99.90
36212;DHT22;22247;48.586;13.492;2023-05-15T15:42:50;13.60;99.90
36212;DHT22;22247;48.586;13.492;2023-05-15T15:45:16;13.70;99.90
36212;DHT22;22247;48.586;13.492;2023-05-15T15:47:44;13.60;99.90
36212;DHT22;22247;48.586;13.492;2023-05-15T15:50:12;13.60;99.90
36212;DHT22;22247;48.586;13.492;2023-05-15T15:52:38;13.30;99.90
36212;DHT22;22247;48.586;13.492;2023-05-15T15:55:03;13.40;99.90
36212;DHT22;22247;48.586;13.492;2023-05-15T15:57:29;13.40;99.90
36212;DHT22;22247;48.586;13.492;2023-05-15T15:59:55;13.40;99.90
36212;DHT22;22247;48.586;13.492;2023-05-15T16:02:23;13.30;99.90
36212;DHT22;22247;48.586;13.492;2023-05-15T16:04:49;13.20;99.90
36212;DHT22;22247;48.586;13.492;2023-05-15T16:07:14;13.20;99.90
36212;DHT22;22247;48.586;13.492;2023-05-15T16:09:40;13.10;99.90
36212;DHT22;22247;48.586;13.492;2023-05-15T16:14:34;12.90;99.90
36212;DHT22;22247;48.586;13.492;2023-05-15T16:17:00;12.90;99.90
36212;DHT22;22247;48.586;13.492;2023-05-15T16:19:26;12.80;99.90
36212;DHT22;22247;48.586;13.492;2023-05-15T16:21:51;12.80;99.90
36212;DHT22;22247;48.586;13.492;2023-05-15T16:24:19;12.90;99.90
36212;DHT22;22247;48.586;13.492;2023-05-15T16:26:47;13.00;99.90
36212;DHT22;22247;48.586;13.492;2023-05-15T16:29:13;13.40;99.90
36212;DHT22;22247;48.586;13.492;2023-05-15T16:31:38;13.90;99.90
36212;DHT22;22247;48.586;13.492;2023-05-15T16:34:07;14.40;99.90
36212;DHT22;22247;48.586;13.492;2023-05-15T16:36:35;14.60;99.90
36212;DHT22;22247;48.586;13.492;2023-05-15T16:39:03;14.80;99.90
36212;DHT22;22247;48.586;13.492;2023-05-15T16:41:29;15.10;99.90
36212;DHT22;22247;48.586;13.492;2023-05-15T16:43:57;15.20;99.90
36212;DHT22;22247;48.586;13.492;2023-05-15T16:46:23;14.70;99.90
36212;DHT22;22247;48.586;13.492;2023-05-15T16:48:51;14.10;99.90
36212;DHT22;22247;48.586;13.492;2023-05-15T16:51:21;13.80;99.90
36212;DHT22;22247;48.586;13.492;2023-05-15T16:53:49;13.70;99.90
36212;DHT22;22247;48.586;13.492;2023-05-15T16:56:16;13.80;99.90
36212;DHT22;22247;48.586;13.492;2023-05-15T16:58:44;14.20;99.90
36212;DHT22;22247;48.586;13.492;2023-05-15T17:01:10;14.10;99.90
36212;DHT22;22247;48.586;13.492;2023-05-15T17:03:35;14.40;99.90
36212;DHT22;22247;48.586;13.492;2023-05-15T17:06:03;14.60;99.90
36212;DHT22;22247;48.586;13.492;2023-05-15T17:08:29;14.60;99.90
36212;DHT22;22247;48.586;13.492;2023-05-15T17:10:58;14.40;99.90
36212;DHT22;22247;48.586;13.492;2023-05-15T17:13:24;14.50;99.90
36212;DHT22;22247;48.586;13.492;2023-05-15T17:15:50;14.80;99.90
36212;DHT22;22247;48.586;13.492;2023-05-15T17:18:15;15.10;99.90
36212;DHT22;22247;48.586;13.492;2023-05-15T17:20:44;15.30;99.90
36212;DHT22;22247;48.586;13.492;2023-05-15T17:23:09;15.50;99.90
36212;DHT22;22247;48.586;13.492;2023-05-15T17:25:35;15.70;99.90
36212;DHT22;22247;48.586;13.492;2023-05-15T17:28:02;16.30;99.90
36212;DHT22;22247;48.586;13.492;2023-05-15T17:30:30;16.60;99.90
36212;DHT22;22247;48.586;13.492;2023-05-15T17:32:56;17.00;99.90
36212;DHT22;22247;48.586;13.492;2023-05-15T17:35:22;17.10;99.90
36212;DHT22;22247;48.586;13.492;2023-05-15T17:37:49;17.20;99.90
36212;DHT22;22247;48.586;13.492;2023-05-15T17:40:16;17.10;99.90
36212;DHT22;22247;48.586;13.492;2023-05-15T17:42:41;17.00;99.90
36212;DHT22;22247;48.586;13.492;2023-05-15T17:45:10;16.80;99.90
36212;DHT22;22247;48.586;13.492;2023-05-15T17:47:35;16.60;99.90
36212;DHT22;22247;48.586;13.492;2023-05-15T17:50:04;16.50;99.90
36212;DHT22;22247;48.586;13.492;2023-05-15T17:52:36;16.10;99.90
36212;DHT22;22247;48.586;13.492;2023-05-15T17:55:07;15.70;99.90
36212;DHT22;22247;48.586;13.492;2023-05-15T17:57:38;15.30;99.90
36212;DHT22;22247;48.586;13.492;2023-05-15T18:00:04;14.90;99.90
36212;DHT22;22247;48.586;13.492;2023-05-15T18:02:31;14.50;99.90
36212;DHT22;22247;48.586;13.492;2023-05-15T18:04:56;13.80;99.90
36212;DHT22;22247;48.586;13.492;2023-05-15T18:07:22;13.20;99.90
36212;DHT22;22247;48.586;13.492;2023-05-15T18:09:48;12.90;99.90
36212;DHT22;22247;48.586;13.492;2023-05-15T18:12:14;12.60;99.90
36212;DHT22;22247;48.586;13.492;2023-05-15T18:14:39;12.40;99.90
36212;DHT22;22247;48.586;13.492;2023-05-15T18:17:05;12.20;99.90
36212;DHT22;22247;48.586;13.492;2023-05-15T18:19:30;12.10;99.90
36212;DHT22;22247;48.586;13.492;2023-05-15T18:21:56;11.90;99.90
36212;DHT22;22247;48.586;13.492;2023-05-15T18:24:24;11.80;99.90
36212;DHT22;22247;48.586;13.492;2023-05-15T18:26:52;11.70;99.90
36212;DHT22;22247;48.586;13.492;2023-05-15T18:29:20;11.60;99.90
36212;DHT22;22247;48.586;13.492;2023-05-15T18:31:45;11.50;99.90
36212;DHT22;22247;48.586;13.492;2023-05-15T18:34:11;11.40;99.90
36212;DHT22;22247;48.586;13.492;2023-05-15T18:36:39;11.30;99.90
36212;DHT22;22247;48.586;13.492;2023-05-15T18:39:04;11.10;99.90
36212;DHT22;22247;48.586;13.492;2023-05-15T18:41:32;11.00;99.90
36212;DHT22;22247;48.586;13.492;2023-05-15T18:44:00;11.00;99.90
36212;DHT22;22247;48.586;13.492;2023-05-15T18:46:26;11.10;99.90
36212;DHT22;22247;48.586;13.492;2023-05-15T18:48:55;10.80;99.90
36212;DHT22;22247;48.586;13.492;2023-05-15T18:51:22;10.70;99.90
36212;DHT22;22247;48.586;13.492;2023-05-15T18:53:48;10.70;99.90
36212;DHT22;22247;48.586;13.492;2023-05-15T18:56:13;10.70;99.90
36212;DHT22;22247;48.586;13.492;2023-05-15T18:58:39;10.70;99.90
36212;DHT22;22247;48.586;13.492;2023-05-15T19:01:05;10.60;99.90
36212;DHT22;22247;48.586;13.492;2023-05-15T19:03:31;10.60;99.90
36212;DHT22;22247;48.586;13.492;2023-05-15T19:06:01;10.50;99.90
36212;DHT22;22247;48.586;13.492;2023-05-15T19:08:30;10.50;99.90
36212;DHT22;22247;48.586;13.492;2023-05-15T19:10:58;10.40;99.90
36212;DHT22;22247;48.586;13.492;2023-05-15T19:13:26;10.40;99.90
36212;DHT22;22247;48.586;13.492;2023-05-15T19:15:54;10.30;99.90
36212;DHT22;22247;48.586;13.492;2023-05-15T19:18:22;10.30;99.90
36212;DHT22;22247;48.586;13.492;2023-05-15T19:20:48;10.40;99.90
36212;DHT22;22247;48.586;13.492;2023-05-15T19:23:16;10.20;99.90
36212;DHT22;22247;48.586;13.492;2023-05-15T19:25:45;10.20;99.90
36212;DHT22;22247;48.586;13.492;2023-05-15T19:28:11;10.20;99.90
36212;DHT22;22247;48.586;13.492;2023-05-15T19:30:38;10.20;99.90
36212;DHT22;22247;48.586;13.492;2023-05-15T19:33:06;10.20;99.90
36212;DHT22;22247;48.586;13.492;2023-05-15T19:35:32;10.00;99.90
36212;DHT22;22247;48.586;13.492;2023-05-15T19:37:57;9.90;99.90
36212;DHT22;22247;48.586;13.492;2023-05-15T19:40:25;9.90;99.90
36212;DHT22;22247;48.586;13.492;2023-05-15T19:42:50;9.90;99.90
36212;DHT22;22247;48.586;13.492;2023-05-15T19:45:19;9.80;99.90
36212;DHT22;22247;48.586;13.492;2023-05-15T19:47:44;9.80;99.90
36212;DHT22;22247;48.586;13.492;2023-05-15T19:50:10;9.80;99.90
36212;DHT22;22247;48.586;13.492;2023-05-15T19:52:35;9.90;99.90
36212;DHT22;22247;48.586;13.492;2023-05-15T19:57:32;9.80;99.90
36212;DHT22;22247;48.586;13.492;2023-05-15T19:59:57;9.80;99.90
36212;DHT22;22247;48.586;13.492;2023-05-15T20:02:25;9.90;99.90
36212;DHT22;22247;48.586;13.492;2023-05-15T20:04:51;9.90;99.90
36212;DHT22;22247;48.586;13.492;2023-05-15T20:07:16;10.00;99.90
36212;DHT22;22247;48.586;13.492;2023-05-15T20:09:44;10.20;99.90
36212;DHT22;22247;48.586;13.492;2023-05-15T20:12:13;9.90;99.90
36212;DHT22;22247;48.586;13.492;2023-05-15T20:14:38;10.00;99.90
36212;DHT22;22247;48.586;13.492;2023-05-15T20:17:05;10.00;99.90
36212;DHT22;22247;48.586;13.492;2023-05-15T20:19:30;10.00;99.90
36212;DHT22;22247;48.586;13.492;2023-05-15T20:21:56;10.00;99.90
36212;DHT22;22247;48.586;13.492;2023-05-15T20:24:22;10.00;99.90
36212;DHT22;22247;48.586;13.492;2023-05-15T20:26:50;10.20;99.90
36212;DHT22;22247;48.586;13.492;2023-05-15T20:29:18;10.10;99.90
36212;DHT22;22247;48.586;13.492;2023-05-15T20:31:44;10.10;99.90
36212;DHT22;22247;48.586;13.492;2023-05-15T20:34:09;10.60;99.90
36212;DHT22;22247;48.586;13.492;2023-05-15T20:36:39;10.20;99.90
36212;DHT22;22247;48.586;13.492;2023-05-15T20:39:05;10.20;99.90
36212;DHT22;22247;48.586;13.492;2023-05-15T20:41:34;10.20;99.90
36212;DHT22;22247;48.586;13.492;2023-05-15T20:43:59;10.20;99.90
36212;DHT22;22247;48.586;13.492;2023-05-15T20:46:30;10.30;99.90
36212;DHT22;22247;48.586;13.492;2023-05-15T20:48:58;10.20;99.90
36212;DHT22;22247;48.586;13.492;2023-05-15T20:51:24;10.10;99.90
36212;DHT22;22247;48.586;13.492;2023-05-15T20:53:49;10.10;99.90
36212;DHT22;22247;48.586;13.492;2023-05-15T20:56:15;10.10;99.90
36212;DHT22;22247;48.586;13.492;2023-05-15T20:58:41;10.30;99.90
36212;DHT22;22247;48.586;13.492;2023-05-15T21:01:07;10.20;99.90
36212;DHT22;22247;48.586;13.492;2023-05-15T21:03:33;10.20;99.90
36212;DHT22;22247;48.586;13.492;2023-05-15T21:05:58;10.20;99.90
36212;DHT22;22247;48.586;13.492;2023-05-15T21:08:25;10.30;99.90
36212;DHT22;22247;48.586;13.492;2023-05-15T21:10:52;10.30;99.90
36212;DHT22;22247;48.586;13.492;2023-05-15T21:13:22;10.20;99.90
36212;DHT22;22247;48.586;13.492;2023-05-15T21:15:50;10.30;99.90
36212;DHT22;22247;48.586;13.492;2023-05-15T21:18:15;10.30;99.90
36212;DHT22;22247;48.586;13.492;2023-05-15T21:20:43;10.20;99.90
36212;DHT22;22247;48.586;13.492;2023-05-15T21:23:08;10.30;99.90
36212;DHT22;22247;48.586;13.492;2023-05-15T21:25:41;10.30;99.90
36212;DHT22;22247;48.586;13.492;2023-05-15T21:28:07;10.20;99.90
36212;DHT22;22247;48.586;13.492;2023-05-15T21:30:34;10.10;99.90
36212;DHT22;22247;48.586;13.492;2023-05-15T21:33:05;10.10;99.90
36212;DHT22;22247;48.586;13.492;2023-05-15T21:35:31;9.90;99.90
36212;DHT22;22247;48.586;13.492;2023-05-15T21:37:58;9.80;99.90
36212;DHT22;22247;48.586;13.492;2023-05-15T21:40:24;9.80;99.90
36212;DHT22;22247;48.586;13.492;2023-05-15T21:42:52;9.80;99.90
36212;DHT22;22247;48.586;13.492;2023-05-15T21:45:18;9.80;99.90
36212;DHT22;22247;48.586;13.492;2023-05-15T21:47:43;9.80;99.90
36212;DHT22;22247;48.586;13.492;2023-05-15T21:50:10;9.80;99.90
36212;DHT22;22247;48.586;13.492;2023-05-15T21:52:35;9.80;99.90
36212;DHT22;22247;48.586;13.492;2023-05-15T21:55:01;9.90;99.90
36212;DHT22;22247;48.586;13.492;2023-05-15T21:57:27;9.90;99.90
36212;DHT22;22247;48.586;13.492;2023-05-15T21:59:53;9.90;99.90
36212;DHT22;22247;48.586;13.492;2023-05-15T22:02:21;10.00;99.90
36212;DHT22;22247;48.586;13.492;2023-05-15T22:04:49;9.90;99.90
36212;DHT22;22247;48.586;13.492;2023-05-15T22:07:15;9.80;99.90
36212;DHT22;22247;48.586;13.492;2023-05-15T22:09:43;9.70;99.90
36212;DHT22;22247;48.586;13.492;2023-05-15T22:12:09;9.70;99.90
36212;DHT22;22247;48.586;13.492;2023-05-15T22:14:35;9.60;99.90
36212;DHT22;22247;48.586;13.492;2023-05-15T22:17:00;9.60;99.90
36212;DHT22;22247;48.586;13.492;2023-05-15T22:19:26;9.60;99.90
36212;DHT22;22247;48.586;13.492;2023-05-15T22:21:53;9.60;99.90
36212;DHT22;22247;48.586;13.492;2023-05-15T22:24:21;9.60;99.90
36212;DHT22;22247;48.586;13.492;2023-05-15T22:26:49;9.60;99.90
36212;DHT22;22247;48.586;13.492;2023-05-15T22:29:14;9.60;99.90
36212;DHT22;22247;48.586;13.492;2023-05-15T22:31:40;9.60;99.90
36212;DHT22;22247;48.586;13.492;2023-05-15T22:34:08;9.60;99.90
36212;DHT22;22247;48.586;13.492;2023-05-15T22:36:33;9.50;99.90
36212;DHT22;22247;48.586;13.492;2023-05-15T22:39:02;9.60;99.90
36212;DHT22;22247;48.586;13.492;2023-05-15T22:41:28;9.50;99.90
36212;DHT22;22247;48.586;13.492;2023-05-15T22:43:54;9.50;99.90
36212;DHT22;22247;48.586;13.492;2023-05-15T22:46:20;9.40;99.90
36212;DHT22;22247;48.586;13.492;2023-05-15T22:48:46;9.50;99.90
36212;DHT22;22247;48.586;13.492;2023-05-15T22:51:11;9.40;99.90
36212;DHT22;22247;48.586;13.492;2023-05-15T22:53:37;9.40;99.90
36212;DHT22;22247;48.586;13.492;2023-05-15T22:56:03;9.40;99.90
36212;DHT22;22247;48.586;13.492;2023-05-15T22:58:31;9.40;99.90
36212;DHT22;22247;48.586;13.492;2023-05-15T23:00:56;9.40;99.90
36212;DHT22;22247;48.586;13.492;2023-05-15T23:03:22;9.40;99.90
36212;DHT22;22247;48.586;13.492;2023-05-15T23:05:47;9.50;99.90
36212;DHT22;22247;48.586;13.492;2023-05-15T23:08:16;9.40;99.90
36212;DHT22;22247;48.586;13.492;2023-05-15T23:10:42;9.40;99.90
36212;DHT22;22247;48.586;13.492;2023-05-15T23:13:10;9.40;99.90
36212;DHT22;22247;48.586;13.492;2023-05-15T23:15:35;9.50;99.90
36212;DHT22;22247;48.586;13.492;2023-05-15T23:18:01;9.50;99.90
36212;DHT22;22247;48.586;13.492;2023-05-15T23:20:26;9.60;99.90
36212;DHT22;22247;48.586;13.492;2023-05-15T23:22:54;9.50;99.90
36212;DHT22;22247;48.586;13.492;2023-05-15T23:25:20;9.50;99.90
36212;DHT22;22247;48.586;13.492;2023-05-15T23:27:48;9.50;99.90
36212;DHT22;22247;48.586;13.492;2023-05-15T23:30:19;9.40;99.90
36212;DHT22;22247;48.586;13.492;2023-05-15T23:32:45;9.40;99.90
36212;DHT22;22247;48.586;13.492;2023-05-15T23:35:10;9.30;99.90
36212;DHT22;22247;48.586;13.492;2023-05-15T23:37:38;9.30;99.90
36212;DHT22;22247;48.586;13.492;2023-05-15T23:40:09;9.20;99.90
36212;DHT22;22247;48.586;13.492;2023-05-15T23:42:34;9.20;99.90
36212;DHT22;22247;48.586;13.492;2023-05-15T23:45:00;9.20;99.90